VOZ225 YBHI-YCBP
Flight info
| Callsign | VOZ225 |
|---|---|
| Flight time | 1h 13m |
| Altitude | 20000 |
| Route | BHI W428 LEC/N0437F400 T21 CARTS DCT CBP |
| Aircraft | B737/M-SDE2E3FGHIRWXY/LB1 |
Departure
| Time | 2026-05-06 06:44 |
|---|---|
| Airport | Broken Hill Airport (YBHI) |
Arrival
| Time | 2026-05-06 07:57 |
|---|---|
| Airport | Coober Pedy Airport (YCBP) |
| Time | Latitude | Longitude | Altitude | Speed | Heading |
|---|---|---|---|---|---|
| 2026-05-06 06:14 | -31.99934 | 141.47030 | 937 ft | 0 kts | 51° |
| 2026-05-06 06:36 | -31.99925 | 141.47043 | 938 ft | 0 kts | 52° |
| 2026-05-06 06:37 | -31.99911 | 141.47069 | 935 ft | 6 kts | 54° |
| 2026-05-06 06:38 | -31.99909 | 141.47071 | 935 ft | 0 kts | 54° |
| 2026-05-06 06:39 | -31.99909 | 141.47072 | 935 ft | 0 kts | 62° |
| 2026-05-06 06:39 | -31.99915 | 141.47076 | 935 ft | 1 kts | 152° |
| 2026-05-06 06:40 | -31.99944 | 141.47082 | 937 ft | 7 kts | 170° |
| 2026-05-06 06:40 | -31.99986 | 141.47103 | 935 ft | 7 kts | 149° |
| 2026-05-06 06:40 | -32.00024 | 141.47135 | 935 ft | 7 kts | 146° |
| 2026-05-06 06:40 | -32.00075 | 141.47175 | 936 ft | 11 kts | 146° |
| 2026-05-06 06:41 | -32.00147 | 141.47230 | 935 ft | 14 kts | 146° |
| 2026-05-06 06:41 | -32.00183 | 141.47322 | 937 ft | 14 kts | 66° |
| 2026-05-06 06:41 | -32.00133 | 141.47415 | 938 ft | 13 kts | 56° |
| 2026-05-06 06:41 | -32.00083 | 141.47502 | 941 ft | 13 kts | 56° |
| 2026-05-06 06:42 | -32.00016 | 141.47620 | 940 ft | 24 kts | 56° |
| 2026-05-06 06:42 | -31.99897 | 141.47830 | 945 ft | 37 kts | 56° |
| 2026-05-06 06:42 | -31.99747 | 141.48084 | 949 ft | 32 kts | 55° |
| 2026-05-06 06:42 | -31.99652 | 141.48232 | 950 ft | 13 kts | 36° |
| 2026-05-06 06:43 | -31.99621 | 141.48267 | 952 ft | 3 kts | 81° |
| 2026-05-06 06:43 | -31.99638 | 141.48278 | 951 ft | 3 kts | 194° |
| 2026-05-06 06:43 | -31.99669 | 141.48226 | 951 ft | 27 kts | 237° |
| 2026-05-06 06:43 | -31.99919 | 141.47795 | 943 ft | 98 kts | 236° |
| 2026-05-06 06:44 | -32.00422 | 141.46939 | 943 ft | 152 kts | 234° |
| 2026-05-06 06:44 | -32.01053 | 141.45824 | 1324 ft | 169 kts | 235° |
| 2026-05-06 06:44 | -32.01473 | 141.44560 | 2187 ft | 166 kts | 266° |
| 2026-05-06 06:44 | -32.01124 | 141.43250 | 2971 ft | 182 kts | 303° |
| 2026-05-06 06:45 | -32.00140 | 141.42127 | 3625 ft | 213 kts | 314° |
| 2026-05-06 06:45 | -31.98962 | 141.40883 | 4145 ft | 239 kts | 312° |
| 2026-05-06 06:45 | -31.97996 | 141.39286 | 5085 ft | 246 kts | 296° |
| 2026-05-06 06:45 | -31.97133 | 141.37392 | 5662 ft | 275 kts | 295° |
| 2026-05-06 06:46 | -31.96222 | 141.35449 | 7033 ft | 269 kts | 296° |
| 2026-05-06 06:46 | -31.95305 | 141.33512 | 8132 ft | 274 kts | 296° |
| 2026-05-06 06:46 | -31.94366 | 141.31513 | 9130 ft | 283 kts | 296° |
| 2026-05-06 06:46 | -31.93421 | 141.29485 | 10165 ft | 290 kts | 296° |
| 2026-05-06 06:47 | -31.92429 | 141.27337 | 10749 ft | 312 kts | 295° |
| 2026-05-06 06:47 | -31.91358 | 141.25004 | 11288 ft | 331 kts | 296° |
| 2026-05-06 06:47 | -31.90255 | 141.22599 | 12257 ft | 335 kts | 296° |
| 2026-05-06 06:47 | -31.89147 | 141.20181 | 13355 ft | 336 kts | 296° |
| 2026-05-06 06:48 | -31.88034 | 141.17750 | 14393 ft | 339 kts | 296° |
| 2026-05-06 06:48 | -31.86913 | 141.15298 | 15319 ft | 342 kts | 296° |
| 2026-05-06 06:48 | -31.85779 | 141.12817 | 16230 ft | 346 kts | 296° |
| 2026-05-06 06:48 | -31.84633 | 141.10308 | 17141 ft | 350 kts | 296° |
| 2026-05-06 06:49 | -31.83471 | 141.07764 | 18029 ft | 355 kts | 296° |
| 2026-05-06 06:49 | -31.82299 | 141.05200 | 18867 ft | 359 kts | 296° |
| 2026-05-06 06:49 | -31.81114 | 141.02607 | 19690 ft | 361 kts | 296° |
| 2026-05-06 06:49 | -31.79920 | 141.00000 | 20516 ft | 363 kts | 296° |
| 2026-05-06 06:50 | -31.78717 | 140.97373 | 21324 ft | 367 kts | 296° |
| 2026-05-06 06:50 | -31.77503 | 140.94722 | 22096 ft | 370 kts | 296° |
| 2026-05-06 06:50 | -31.76274 | 140.92039 | 22807 ft | 376 kts | 296° |
| 2026-05-06 06:50 | -31.75019 | 140.89303 | 23302 ft | 386 kts | 296° |
| 2026-05-06 06:51 | -31.73737 | 140.86510 | 23937 ft | 390 kts | 296° |
| 2026-05-06 06:51 | -31.72447 | 140.83702 | 24589 ft | 391 kts | 296° |
| 2026-05-06 06:51 | -31.71169 | 140.80924 | 25240 ft | 392 kts | 296° |
| 2026-05-06 06:51 | -31.69868 | 140.78099 | 25849 ft | 395 kts | 296° |
| 2026-05-06 06:52 | -31.68558 | 140.75254 | 26419 ft | 397 kts | 296° |
| 2026-05-06 06:52 | -31.67238 | 140.72390 | 26981 ft | 400 kts | 296° |
| 2026-05-06 06:52 | -31.65912 | 140.69514 | 27548 ft | 403 kts | 296° |
| 2026-05-06 06:52 | -31.64571 | 140.66608 | 28097 ft | 405 kts | 296° |
| 2026-05-06 06:53 | -31.63227 | 140.63699 | 28624 ft | 408 kts | 296° |
| 2026-05-06 06:53 | -31.61867 | 140.60758 | 29133 ft | 410 kts | 296° |
| 2026-05-06 06:53 | -31.60504 | 140.57810 | 29625 ft | 413 kts | 296° |
| 2026-05-06 06:53 | -31.59128 | 140.54840 | 30120 ft | 416 kts | 296° |
| 2026-05-06 06:54 | -31.57744 | 140.51852 | 30543 ft | 418 kts | 296° |
| 2026-05-06 06:54 | -31.56352 | 140.48851 | 30952 ft | 420 kts | 296° |
| 2026-05-06 06:54 | -31.54957 | 140.45846 | 31422 ft | 419 kts | 296° |
| 2026-05-06 06:54 | -31.53566 | 140.42854 | 32017 ft | 415 kts | 296° |
| 2026-05-06 06:55 | -31.52194 | 140.39905 | 32627 ft | 411 kts | 296° |
| 2026-05-06 06:55 | -31.50829 | 140.36971 | 33152 ft | 409 kts | 296° |
| 2026-05-06 06:55 | -31.49468 | 140.34049 | 33631 ft | 408 kts | 296° |
| 2026-05-06 06:55 | -31.48112 | 140.31138 | 34126 ft | 406 kts | 296° |
| 2026-05-06 06:56 | -31.46763 | 140.28244 | 34575 ft | 404 kts | 296° |
| 2026-05-06 06:56 | -31.45420 | 140.25366 | 34977 ft | 402 kts | 297° |
| 2026-05-06 06:56 | -31.44535 | 140.23471 | 35231 ft | 401 kts | 297° |
| 2026-05-06 06:56 | -31.42747 | 140.19644 | 35723 ft | 400 kts | 297° |
| 2026-05-06 06:57 | -31.41414 | 140.16794 | 36097 ft | 398 kts | 297° |
| 2026-05-06 06:57 | -31.40532 | 140.14910 | 36326 ft | 398 kts | 297° |
| 2026-05-06 06:57 | -31.39204 | 140.12074 | 36680 ft | 397 kts | 297° |
| 2026-05-06 06:57 | -31.37881 | 140.09251 | 37045 ft | 395 kts | 297° |
| 2026-05-06 06:58 | -31.36561 | 140.06437 | 37391 ft | 394 kts | 297° |
| 2026-05-06 06:58 | -31.35245 | 140.03631 | 37736 ft | 393 kts | 297° |
| 2026-05-06 06:58 | -31.33932 | 140.00835 | 38080 ft | 391 kts | 297° |
| 2026-05-06 06:58 | -31.32622 | 139.98049 | 38409 ft | 390 kts | 297° |
| 2026-05-06 06:59 | -31.31316 | 139.95269 | 38721 ft | 390 kts | 297° |
| 2026-05-06 06:59 | -31.30011 | 139.92495 | 38984 ft | 389 kts | 297° |
| 2026-05-06 06:59 | -31.28706 | 139.89725 | 39194 ft | 389 kts | 297° |
| 2026-05-06 06:59 | -31.27400 | 139.86952 | 39383 ft | 390 kts | 297° |
| 2026-05-06 07:00 | -31.26102 | 139.84172 | 39582 ft | 390 kts | 297° |
| 2026-05-06 07:00 | -31.24809 | 139.81391 | 39794 ft | 389 kts | 297° |
| 2026-05-06 07:00 | -31.23518 | 139.78611 | 39988 ft | 389 kts | 297° |
| 2026-05-06 07:00 | -31.22226 | 139.75827 | 40162 ft | 390 kts | 297° |
| 2026-05-06 07:01 | -31.20925 | 139.73031 | 40209 ft | 394 kts | 297° |
| 2026-05-06 07:01 | -31.18282 | 139.67355 | 40228 ft | 402 kts | 297° |
| 2026-05-06 07:02 | -31.15608 | 139.61625 | 40222 ft | 406 kts | 297° |
| 2026-05-06 07:02 | -31.12901 | 139.55836 | 40215 ft | 407 kts | 297° |
| 2026-05-06 07:03 | -31.10184 | 139.50035 | 40206 ft | 407 kts | 297° |
| 2026-05-06 07:03 | -31.07471 | 139.44251 | 40211 ft | 406 kts | 297° |
| 2026-05-06 07:04 | -31.04764 | 139.38487 | 40209 ft | 405 kts | 297° |
| 2026-05-06 07:04 | -31.02056 | 139.32731 | 40220 ft | 404 kts | 297° |
| 2026-05-06 07:05 | -30.99351 | 139.26990 | 40218 ft | 404 kts | 297° |
| 2026-05-06 07:05 | -30.96648 | 139.21260 | 40220 ft | 403 kts | 297° |
| 2026-05-06 07:06 | -30.93943 | 139.15535 | 40211 ft | 403 kts | 297° |
| 2026-05-06 07:06 | -30.91239 | 139.09821 | 40218 ft | 402 kts | 297° |
| 2026-05-06 07:07 | -30.88535 | 139.04117 | 40222 ft | 402 kts | 297° |
| 2026-05-06 07:07 | -30.85835 | 138.98428 | 40223 ft | 402 kts | 297° |
| 2026-05-06 07:08 | -30.83133 | 138.92742 | 40227 ft | 401 kts | 297° |
| 2026-05-06 07:08 | -30.80429 | 138.87062 | 40220 ft | 401 kts | 297° |
| 2026-05-06 07:09 | -30.77723 | 138.81386 | 40225 ft | 401 kts | 297° |
| 2026-05-06 07:09 | -30.75016 | 138.75717 | 40237 ft | 401 kts | 297° |
| 2026-05-06 07:10 | -30.72304 | 138.70044 | 40235 ft | 402 kts | 297° |
| 2026-05-06 07:10 | -30.69584 | 138.64364 | 40232 ft | 402 kts | 297° |
| 2026-05-06 07:11 | -30.66861 | 138.58685 | 40236 ft | 403 kts | 297° |
| 2026-05-06 07:11 | -30.64133 | 138.53002 | 40241 ft | 403 kts | 297° |
| 2026-05-06 07:12 | -30.61399 | 138.47317 | 40238 ft | 403 kts | 297° |
| 2026-05-06 07:12 | -30.58784 | 138.41568 | 40234 ft | 402 kts | 294° |
| 2026-05-06 07:13 | -30.56425 | 138.35694 | 40244 ft | 402 kts | 294° |
| 2026-05-06 07:13 | -30.54083 | 138.29802 | 40242 ft | 402 kts | 294° |
| 2026-05-06 07:14 | -30.51724 | 138.23914 | 40241 ft | 402 kts | 294° |
| 2026-05-06 07:14 | -30.49354 | 138.18035 | 40235 ft | 402 kts | 294° |
| 2026-05-06 07:15 | -30.46980 | 138.12165 | 40249 ft | 402 kts | 294° |
| 2026-05-06 07:15 | -30.44618 | 138.06339 | 40247 ft | 402 kts | 294° |
| 2026-05-06 07:16 | -30.42240 | 138.00479 | 40243 ft | 402 kts | 294° |
| 2026-05-06 07:16 | -30.39859 | 137.94621 | 40248 ft | 402 kts | 294° |
| 2026-05-06 07:17 | -30.37459 | 137.88728 | 40251 ft | 402 kts | 294° |
| 2026-05-06 07:17 | -30.35076 | 137.82884 | 40250 ft | 402 kts | 294° |
| 2026-05-06 07:18 | -30.32704 | 137.77076 | 40242 ft | 402 kts | 294° |
| 2026-05-06 07:18 | -30.30313 | 137.71232 | 40249 ft | 402 kts | 294° |
| 2026-05-06 07:19 | -30.27920 | 137.65391 | 40248 ft | 402 kts | 294° |
| 2026-05-06 07:19 | -30.25525 | 137.59556 | 40247 ft | 402 kts | 294° |
| 2026-05-06 07:20 | -30.23126 | 137.53720 | 40245 ft | 402 kts | 294° |
| 2026-05-06 07:20 | -30.20725 | 137.47887 | 40248 ft | 402 kts | 294° |
| 2026-05-06 07:21 | -30.18321 | 137.42055 | 40248 ft | 402 kts | 294° |
| 2026-05-06 07:21 | -30.15913 | 137.36224 | 40237 ft | 402 kts | 294° |
| 2026-05-06 07:22 | -30.13503 | 137.30397 | 40247 ft | 402 kts | 294° |
| 2026-05-06 07:22 | -30.11090 | 137.24573 | 40252 ft | 402 kts | 294° |
| 2026-05-06 07:23 | -30.08674 | 137.18749 | 40248 ft | 402 kts | 294° |
| 2026-05-06 07:23 | -30.06271 | 137.12965 | 40250 ft | 402 kts | 294° |
| 2026-05-06 07:24 | -30.03847 | 137.07142 | 40247 ft | 402 kts | 294° |
| 2026-05-06 07:24 | -30.01424 | 137.01327 | 40246 ft | 402 kts | 294° |
| 2026-05-06 07:25 | -29.98999 | 136.95519 | 40251 ft | 402 kts | 294° |
| 2026-05-06 07:25 | -29.96570 | 136.89708 | 40250 ft | 402 kts | 294° |
| 2026-05-06 07:26 | -29.94141 | 136.83907 | 40236 ft | 401 kts | 294° |
| 2026-05-06 07:26 | -29.92926 | 136.81010 | 39724 ft | 401 kts | 294° |
| 2026-05-06 07:26 | -29.91737 | 136.78175 | 39299 ft | 396 kts | 294° |
| 2026-05-06 07:26 | -29.90544 | 136.75336 | 38823 ft | 392 kts | 294° |
| 2026-05-06 07:27 | -29.89362 | 136.72523 | 38264 ft | 388 kts | 294° |
| 2026-05-06 07:27 | -29.88190 | 136.69735 | 37717 ft | 385 kts | 294° |
| 2026-05-06 07:27 | -29.87027 | 136.66972 | 37187 ft | 382 kts | 294° |
| 2026-05-06 07:27 | -29.85873 | 136.64230 | 36662 ft | 379 kts | 294° |
| 2026-05-06 07:28 | -29.84725 | 136.61506 | 36168 ft | 377 kts | 294° |
| 2026-05-06 07:28 | -29.83585 | 136.58803 | 35665 ft | 374 kts | 294° |
| 2026-05-06 07:28 | -29.81320 | 136.53435 | 34692 ft | 371 kts | 294° |
| 2026-05-06 07:29 | -29.80195 | 136.50772 | 34217 ft | 369 kts | 294° |
| 2026-05-06 07:29 | -29.79072 | 136.48117 | 33681 ft | 368 kts | 294° |
| 2026-05-06 07:29 | -29.77953 | 136.45473 | 33155 ft | 367 kts | 294° |
| 2026-05-06 07:29 | -29.76839 | 136.42840 | 32641 ft | 366 kts | 294° |
| 2026-05-06 07:30 | -29.75724 | 136.40209 | 32136 ft | 365 kts | 294° |
| 2026-05-06 07:30 | -29.74592 | 136.37536 | 31664 ft | 381 kts | 294° |
| 2026-05-06 07:30 | -29.73417 | 136.34762 | 31189 ft | 397 kts | 294° |
| 2026-05-06 07:30 | -29.72201 | 136.31899 | 30704 ft | 399 kts | 294° |
| 2026-05-06 07:31 | -29.70987 | 136.29044 | 30207 ft | 396 kts | 294° |
| 2026-05-06 07:31 | -29.69781 | 136.26208 | 29641 ft | 393 kts | 294° |
| 2026-05-06 07:31 | -29.68559 | 136.23403 | 29103 ft | 389 kts | 297° |
| 2026-05-06 07:31 | -29.67217 | 136.20720 | 28511 ft | 385 kts | 298° |
| 2026-05-06 07:32 | -29.65846 | 136.18105 | 28008 ft | 379 kts | 299° |
| 2026-05-06 07:32 | -29.64479 | 136.15535 | 27520 ft | 374 kts | 299° |
| 2026-05-06 07:32 | -29.63130 | 136.13000 | 27049 ft | 369 kts | 299° |
| 2026-05-06 07:32 | -29.61801 | 136.10495 | 26575 ft | 365 kts | 299° |
| 2026-05-06 07:33 | -29.60492 | 136.08019 | 26124 ft | 361 kts | 299° |
| 2026-05-06 07:33 | -29.59198 | 136.05565 | 25675 ft | 357 kts | 299° |
| 2026-05-06 07:33 | -29.57918 | 136.03133 | 25232 ft | 354 kts | 299° |
| 2026-05-06 07:33 | -29.56650 | 136.00720 | 24788 ft | 351 kts | 299° |
| 2026-05-06 07:34 | -29.55392 | 135.98329 | 24351 ft | 349 kts | 299° |
| 2026-05-06 07:34 | -29.54141 | 135.95951 | 23903 ft | 347 kts | 299° |
| 2026-05-06 07:34 | -29.52895 | 135.93582 | 23384 ft | 345 kts | 299° |
| 2026-05-06 07:34 | -29.51655 | 135.91226 | 22898 ft | 343 kts | 299° |
| 2026-05-06 07:35 | -29.50428 | 135.88898 | 22436 ft | 340 kts | 299° |
| 2026-05-06 07:35 | -29.49211 | 135.86588 | 22001 ft | 337 kts | 298° |
| 2026-05-06 07:35 | -29.48001 | 135.84294 | 21571 ft | 334 kts | 299° |
| 2026-05-06 07:35 | -29.46820 | 135.82055 | 21138 ft | 331 kts | 298° |
| 2026-05-06 07:36 | -29.45617 | 135.79777 | 20708 ft | 329 kts | 298° |
| 2026-05-06 07:36 | -29.44434 | 135.77537 | 20288 ft | 328 kts | 298° |
| 2026-05-06 07:36 | -29.43249 | 135.75293 | 19869 ft | 330 kts | 298° |
| 2026-05-06 07:36 | -29.42069 | 135.73060 | 19449 ft | 333 kts | 298° |
| 2026-05-06 07:37 | -29.40871 | 135.70794 | 19003 ft | 332 kts | 298° |
| 2026-05-06 07:37 | -29.39675 | 135.68536 | 18564 ft | 331 kts | 298° |
| 2026-05-06 07:37 | -29.38481 | 135.66282 | 18069 ft | 330 kts | 298° |
| 2026-05-06 07:37 | -29.37292 | 135.64039 | 17617 ft | 328 kts | 298° |
| 2026-05-06 07:38 | -29.36111 | 135.61811 | 17177 ft | 326 kts | 298° |
| 2026-05-06 07:38 | -29.34939 | 135.59603 | 16748 ft | 324 kts | 298° |
| 2026-05-06 07:38 | -29.33771 | 135.57403 | 16323 ft | 322 kts | 298° |
| 2026-05-06 07:38 | -29.32610 | 135.55218 | 15896 ft | 320 kts | 298° |
| 2026-05-06 07:39 | -29.31455 | 135.53043 | 15490 ft | 318 kts | 299° |
| 2026-05-06 07:39 | -29.30306 | 135.50883 | 15074 ft | 317 kts | 298° |
| 2026-05-06 07:39 | -29.29162 | 135.48731 | 14664 ft | 316 kts | 299° |
| 2026-05-06 07:39 | -29.28018 | 135.46582 | 14245 ft | 315 kts | 298° |
| 2026-05-06 07:40 | -29.26880 | 135.44445 | 13790 ft | 314 kts | 298° |
| 2026-05-06 07:40 | -29.25744 | 135.42311 | 13332 ft | 313 kts | 299° |
| 2026-05-06 07:40 | -29.24612 | 135.40188 | 12907 ft | 312 kts | 299° |
| 2026-05-06 07:40 | -29.23486 | 135.38077 | 12481 ft | 310 kts | 299° |
| 2026-05-06 07:41 | -29.22366 | 135.35978 | 12056 ft | 308 kts | 299° |
| 2026-05-06 07:41 | -29.21252 | 135.33892 | 11640 ft | 306 kts | 299° |
| 2026-05-06 07:41 | -29.20146 | 135.31821 | 11228 ft | 305 kts | 299° |
| 2026-05-06 07:41 | -29.19031 | 135.29733 | 10627 ft | 311 kts | 299° |
| 2026-05-06 07:42 | -29.17899 | 135.27615 | 10193 ft | 310 kts | 299° |
| 2026-05-06 07:42 | -29.16794 | 135.25553 | 9985 ft | 300 kts | 299° |
| 2026-05-06 07:42 | -29.15709 | 135.23526 | 9568 ft | 297 kts | 299° |
| 2026-05-06 07:42 | -29.14637 | 135.21525 | 9193 ft | 294 kts | 299° |
| 2026-05-06 07:43 | -29.13573 | 135.19538 | 8826 ft | 291 kts | 299° |
| 2026-05-06 07:43 | -29.12873 | 135.18232 | 8574 ft | 290 kts | 298° |
| 2026-05-06 07:43 | -29.11472 | 135.15618 | 8089 ft | 287 kts | 298° |
| 2026-05-06 07:43 | -29.10782 | 135.14333 | 7840 ft | 285 kts | 299° |
| 2026-05-06 07:44 | -29.09751 | 135.12410 | 7483 ft | 283 kts | 298° |
| 2026-05-06 07:44 | -29.08727 | 135.10504 | 7129 ft | 280 kts | 299° |
| 2026-05-06 07:44 | -29.07712 | 135.08613 | 6777 ft | 278 kts | 298° |
| 2026-05-06 07:44 | -29.06703 | 135.06736 | 6409 ft | 276 kts | 298° |
| 2026-05-06 07:45 | -29.05702 | 135.04873 | 6045 ft | 274 kts | 298° |
| 2026-05-06 07:45 | -29.04706 | 135.03020 | 5688 ft | 273 kts | 298° |
| 2026-05-06 07:45 | -29.03715 | 135.01179 | 5336 ft | 271 kts | 298° |
| 2026-05-06 07:45 | -29.02730 | 134.99347 | 4985 ft | 270 kts | 298° |
| 2026-05-06 07:46 | -29.01746 | 134.97520 | 4623 ft | 270 kts | 298° |
| 2026-05-06 07:46 | -29.00771 | 134.95710 | 4399 ft | 263 kts | 298° |
| 2026-05-06 07:46 | -28.99831 | 134.93969 | 4271 ft | 252 kts | 298° |
| 2026-05-06 07:46 | -28.98931 | 134.92303 | 4185 ft | 239 kts | 298° |
| 2026-05-06 07:47 | -28.98085 | 134.90737 | 4046 ft | 226 kts | 297° |
| 2026-05-06 07:47 | -28.97322 | 134.89217 | 3888 ft | 213 kts | 295° |
| 2026-05-06 07:47 | -28.96628 | 134.87785 | 3788 ft | 199 kts | 294° |
| 2026-05-06 07:47 | -28.95970 | 134.86426 | 3587 ft | 192 kts | 294° |
| 2026-05-06 07:48 | -28.95354 | 134.85110 | 3405 ft | 182 kts | 286° |
| 2026-05-06 07:48 | -28.95294 | 134.83776 | 3198 ft | 161 kts | 246° |
| 2026-05-06 07:48 | -28.95847 | 134.82733 | 3036 ft | 155 kts | 224° |
| 2026-05-06 07:48 | -28.96552 | 134.81792 | 2746 ft | 154 kts | 224° |
| 2026-05-06 07:49 | -28.97239 | 134.80881 | 2450 ft | 147 kts | 223° |
| 2026-05-06 07:49 | -28.97905 | 134.80005 | 2194 ft | 147 kts | 224° |
| 2026-05-06 07:49 | -28.98551 | 134.79154 | 1986 ft | 137 kts | 222° |
| 2026-05-06 07:49 | -28.99162 | 134.78349 | 1747 ft | 133 kts | 223° |
| 2026-05-06 07:50 | -28.99781 | 134.77539 | 1596 ft | 134 kts | 224° |
| 2026-05-06 07:50 | -29.00356 | 134.76761 | 1454 ft | 123 kts | 224° |
| 2026-05-06 07:50 | -29.00905 | 134.76026 | 1370 ft | 121 kts | 222° |
| 2026-05-06 07:50 | -29.01479 | 134.75313 | 1272 ft | 122 kts | 221° |
| 2026-05-06 07:51 | -29.02043 | 134.74589 | 1147 ft | 125 kts | 225° |
| 2026-05-06 07:51 | -29.02599 | 134.73819 | 1031 ft | 124 kts | 224° |
| 2026-05-06 07:51 | -29.03158 | 134.73089 | 846 ft | 121 kts | 222° |
| 2026-05-06 07:51 | -29.03719 | 134.72375 | 759 ft | 111 kts | 222° |
| 2026-05-06 07:52 | -29.04215 | 134.71732 | 837 ft | 125 kts | 226° |
| 2026-05-06 07:52 | -29.04721 | 134.70977 | 1187 ft | 128 kts | 227° |
| 2026-05-06 07:52 | -29.05455 | 134.70341 | 1442 ft | 143 kts | 191° |
| 2026-05-06 07:52 | -29.06436 | 134.70537 | 1816 ft | 157 kts | 146° |
| 2026-05-06 07:53 | -29.06956 | 134.71695 | 1943 ft | 178 kts | 94° |
| 2026-05-06 07:53 | -29.06502 | 134.72947 | 1974 ft | 174 kts | 52° |
| 2026-05-06 07:53 | -29.05557 | 134.73912 | 1818 ft | 192 kts | 46° |
| 2026-05-06 07:53 | -29.04562 | 134.74931 | 1803 ft | 185 kts | 46° |
| 2026-05-06 07:54 | -29.03615 | 134.75913 | 1845 ft | 183 kts | 46° |
| 2026-05-06 07:54 | -29.02683 | 134.76864 | 1845 ft | 179 kts | 45° |
| 2026-05-06 07:54 | -29.01734 | 134.77801 | 1762 ft | 177 kts | 44° |
| 2026-05-06 07:54 | -29.00660 | 134.78307 | 1736 ft | 163 kts | 2° |
| 2026-05-06 07:55 | -28.99580 | 134.77935 | 1550 ft | 161 kts | 315° |
| 2026-05-06 07:55 | -28.99139 | 134.76900 | 1505 ft | 137 kts | 258° |
| 2026-05-06 07:55 | -28.99565 | 134.76054 | 1517 ft | 122 kts | 207° |
| 2026-05-06 07:55 | -29.00363 | 134.75881 | 1380 ft | 118 kts | 187° |
| 2026-05-06 07:56 | -29.01123 | 134.75502 | 1322 ft | 122 kts | 210° |
| 2026-05-06 07:56 | -29.01777 | 134.74874 | 1210 ft | 124 kts | 220° |
| 2026-05-06 07:56 | -29.02362 | 134.74164 | 1117 ft | 123 kts | 226° |
| 2026-05-06 07:56 | -29.02902 | 134.73416 | 972 ft | 119 kts | 224° |
| 2026-05-06 07:57 | -29.03452 | 134.72718 | 801 ft | 123 kts | 225° |
| 2026-05-06 07:57 | -29.03981 | 134.72038 | 740 ft | 82 kts | 230° |
| 2026-05-06 07:57 | -29.04179 | 134.71771 | 740 ft | 32 kts | 229° |
| 2026-05-06 07:57 | -29.04317 | 134.71592 | 738 ft | 29 kts | 229° |
| 2026-05-06 07:58 | -29.04391 | 134.71498 | 740 ft | 12 kts | 218° |
| 2026-05-06 07:58 | -29.04434 | 134.71463 | 739 ft | 1 kts | 258° |
| 2026-05-06 07:58 | -29.04426 | 134.71460 | 738 ft | 2 kts | 352° |
| 2026-05-06 07:58 | -29.04395 | 134.71480 | 738 ft | 8 kts | 47° |
| 2026-05-06 07:59 | -29.04343 | 134.71554 | 738 ft | 16 kts | 50° |
| 2026-05-06 07:59 | -29.04256 | 134.71671 | 739 ft | 23 kts | 50° |
| 2026-05-06 07:59 | -29.04137 | 134.71828 | 740 ft | 29 kts | 49° |
| 2026-05-06 07:59 | -29.03991 | 134.72020 | 742 ft | 35 kts | 49° |
| 2026-05-06 08:00 | -29.03824 | 134.72241 | 745 ft | 38 kts | 49° |
| 2026-05-06 08:00 | -29.03711 | 134.72388 | 743 ft | 15 kts | 49° |
| 2026-05-06 08:00 | -29.03642 | 134.72408 | 740 ft | 12 kts | 328° |
| 2026-05-06 08:00 | -29.03591 | 134.72358 | 739 ft | 1 kts | 298° |
| 2026-05-06 08:01 | -29.03590 | 134.72348 | 739 ft | 1 kts | 269° |
| 2026-05-06 08:01 | -29.03590 | 134.72338 | 740 ft | 1 kts | 269° |
| 2026-05-06 08:01 | -29.03590 | 134.72321 | 738 ft | 3 kts | 269° |
| 2026-05-06 08:01 | -29.03582 | 134.72313 | 737 ft | 1 kts | 3° |
| 2026-05-06 08:02 | -29.03577 | 134.72319 | 741 ft | 0 kts | 41° |